createdAt,value
2018-08-20T00:02:30.288Z,17.23
2018-08-20T00:04:59.935Z,26.30
2018-08-20T00:07:28.089Z,13.37
2018-08-20T00:09:56.276Z,20.13
2018-08-20T00:12:24.420Z,21.50
2018-08-20T00:14:53.408Z,14.73
2018-08-20T00:17:21.636Z,18.00
2018-08-20T00:19:49.780Z,23.60
2018-08-20T00:22:17.967Z,20.67
2018-08-20T00:24:56.213Z,20.87
2018-08-20T00:27:24.412Z,16.10
2018-08-20T00:29:52.615Z,25.30
2018-08-20T00:32:20.767Z,17.67
2018-08-20T00:34:48.951Z,15.37
2018-08-20T00:37:17.124Z,21.23
2018-08-20T00:39:45.292Z,16.20
2018-08-20T00:42:13.556Z,15.87
2018-08-20T00:44:41.700Z,18.93
2018-08-20T00:47:09.852Z,17.60
2018-08-20T00:49:38.309Z,17.23
2018-08-20T00:52:06.450Z,21.17
2018-08-20T00:54:34.612Z,16.60
2018-08-20T00:57:02.799Z,22.37
2018-08-20T00:59:30.943Z,18.40
2018-08-20T01:01:59.101Z,19.63
2018-08-20T01:04:33.967Z,23.37
2018-08-20T01:07:02.147Z,19.50
2018-08-20T01:09:30.317Z,24.20
2018-08-20T01:11:58.496Z,18.90
2018-08-20T01:14:26.662Z,17.37
2018-08-20T01:16:54.828Z,15.70
2018-08-20T01:19:23.007Z,14.20
2018-08-20T01:21:51.192Z,24.30
2018-08-20T01:24:19.367Z,16.13
2018-08-20T01:26:47.552Z,13.50
2018-08-20T01:29:15.719Z,20.90
2018-08-20T01:31:43.949Z,21.10
2018-08-20T01:34:13.200Z,19.13
2018-08-20T01:36:44.241Z,16.60
2018-08-20T01:39:12.400Z,17.53
2018-08-20T01:41:40.585Z,27.53
2018-08-20T01:44:08.848Z,16.30
2018-08-20T01:46:37.127Z,17.90
2018-08-20T01:49:05.359Z,17.30
2018-08-20T01:51:33.563Z,22.80
2018-08-20T01:54:01.740Z,20.10
2018-08-20T01:56:29.912Z,16.40
2018-08-20T01:58:58.159Z,19.37
2018-08-20T02:01:26.365Z,18.20
2018-08-20T02:03:54.547Z,20.90
2018-08-20T02:06:23.188Z,16.00
2018-08-20T02:08:51.343Z,20.33
2018-08-20T02:11:19.713Z,16.70
2018-08-20T02:13:47.900Z,27.83
2018-08-20T02:16:16.061Z,19.93
2018-08-20T02:18:44.236Z,20.60
2018-08-20T02:21:12.407Z,24.87
2018-08-20T02:23:40.579Z,22.03
2018-08-20T02:26:08.771Z,20.90
2018-08-20T02:28:36.959Z,20.40
2018-08-20T02:31:05.313Z,21.80
2018-08-20T02:33:33.471Z,22.40
2018-08-20T02:36:01.677Z,26.13
2018-08-20T02:38:30.012Z,20.40
2018-08-20T02:40:58.269Z,23.80
2018-08-20T02:43:26.421Z,26.30
2018-08-20T02:45:54.604Z,20.50
2018-08-20T02:48:22.763Z,22.90
2018-08-20T02:50:50.928Z,23.00
2018-08-20T02:53:19.241Z,26.20
2018-08-20T02:55:47.409Z,19.77
2018-08-20T02:58:15.584Z,24.50
2018-08-20T03:00:44.006Z,21.17
2018-08-20T03:03:12.190Z,20.52
2018-08-20T03:05:40.340Z,23.20
2018-08-20T03:08:08.592Z,28.90
2018-08-20T03:10:36.725Z,23.93
2018-08-20T03:13:04.871Z,31.67
2018-08-20T03:15:33.068Z,29.20
2018-08-20T03:18:01.226Z,25.73
2018-08-20T03:20:29.398Z,21.17
2018-08-20T03:22:57.609Z,25.77
2018-08-20T03:25:25.821Z,21.27
2018-08-20T03:27:53.989Z,21.97
2018-08-20T03:30:22.166Z,31.40
2018-08-20T03:32:50.521Z,26.70
2018-08-20T03:35:18.675Z,33.27
2018-08-20T03:37:47.049Z,28.30
2018-08-20T03:40:15.219Z,26.93
2018-08-20T03:42:43.441Z,28.67
2018-08-20T03:45:11.907Z,33.27
2018-08-20T03:47:40.088Z,23.37
2018-08-20T03:50:10.700Z,26.33
2018-08-20T03:52:38.846Z,28.73
2018-08-20T03:55:07.752Z,25.57
2018-08-20T03:57:36.331Z,21.43
2018-08-20T04:00:05.071Z,21.13
2018-08-20T04:02:33.197Z,14.83
2018-08-20T04:05:01.438Z,18.20
2018-08-20T04:07:29.552Z,15.50
2018-08-20T04:09:57.726Z,10.33
2018-08-20T04:12:25.946Z,14.53
2018-08-20T04:14:54.085Z,12.60
2018-08-20T04:17:22.255Z,13.10
2018-08-20T04:19:50.424Z,15.57
2018-08-20T04:22:18.630Z,8.10
2018-08-20T04:24:46.788Z,18.70
2018-08-20T04:27:14.979Z,13.50
2018-08-20T04:29:43.212Z,14.93
2018-08-20T04:32:11.392Z,20.03
2018-08-20T04:34:39.554Z,15.73
2018-08-20T04:37:07.870Z,18.10
2018-08-20T04:39:36.039Z,18.13
2018-08-20T04:42:04.274Z,15.30
2018-08-20T04:44:32.393Z,12.73
2018-08-20T04:47:00.645Z,13.63
2018-08-20T04:49:28.803Z,14.07
2018-08-20T04:51:56.953Z,17.43
2018-08-20T04:54:25.204Z,12.37
2018-08-20T04:56:53.406Z,10.93
2018-08-20T04:59:21.571Z,12.47
2018-08-20T05:01:49.772Z,11.07
2018-08-20T05:04:17.995Z,9.70
2018-08-20T05:06:46.151Z,11.13
2018-08-20T05:09:14.339Z,8.17
2018-08-20T05:11:42.563Z,11.83
2018-08-20T05:14:10.755Z,7.37
2018-08-20T05:16:38.935Z,9.40
2018-08-20T05:19:07.904Z,10.73
2018-08-20T05:21:36.042Z,9.07
2018-08-20T05:24:04.263Z,8.77
2018-08-20T05:26:32.433Z,14.97
2018-08-20T05:29:00.648Z,9.90
2018-08-20T05:31:28.828Z,8.40
2018-08-20T05:33:57.027Z,9.00
2018-08-20T05:36:25.184Z,10.50
2018-08-20T05:38:53.372Z,8.27
2018-08-20T05:41:21.556Z,13.53
2018-08-20T05:43:49.720Z,8.20
2018-08-20T05:46:17.914Z,8.47
2018-08-20T05:48:46.209Z,14.83
2018-08-20T05:51:14.424Z,9.23
2018-08-20T05:53:42.600Z,11.83
2018-08-20T05:56:10.825Z,12.93
2018-08-20T05:58:38.980Z,10.43
2018-08-20T06:01:07.221Z,7.63
2018-08-20T06:03:35.393Z,11.77
2018-08-20T06:06:03.565Z,9.27
2018-08-20T06:08:31.774Z,11.40
2018-08-20T06:10:59.973Z,7.87
2018-08-20T06:13:28.163Z,8.67
2018-08-20T06:15:56.607Z,14.03
2018-08-20T06:18:24.914Z,11.07
2018-08-20T06:20:53.148Z,8.27
2018-08-20T06:23:21.415Z,6.00
2018-08-20T06:25:49.616Z,8.70
2018-08-20T06:28:18.003Z,6.00
2018-08-20T06:30:46.233Z,8.70
2018-08-20T06:33:14.420Z,10.70
2018-08-20T06:35:42.891Z,16.47
2018-08-20T06:38:11.097Z,10.10
2018-08-20T06:40:39.267Z,22.03
2018-08-20T06:43:07.663Z,12.93
2018-08-20T06:45:35.884Z,15.83
2018-08-20T06:48:04.085Z,11.90
2018-08-20T06:50:32.374Z,19.70
2018-08-20T06:53:00.535Z,8.23
2018-08-20T06:55:28.805Z,13.23
2018-08-20T06:57:56.977Z,16.93
2018-08-20T07:00:25.140Z,13.17
2018-08-20T07:02:53.313Z,7.70
2018-08-20T07:05:21.520Z,10.70
2018-08-20T07:07:49.715Z,14.10
2018-08-20T07:10:17.927Z,12.60
2018-08-20T07:12:46.570Z,10.03
2018-08-20T07:15:15.698Z,9.30
2018-08-20T07:17:44.156Z,12.00
2018-08-20T07:20:13.795Z,11.40
2018-08-20T07:22:42.121Z,14.00
2018-08-20T07:25:10.294Z,18.80
2018-08-20T07:27:38.839Z,14.90
2018-08-20T07:30:08.380Z,13.13
2018-08-20T07:32:36.602Z,10.33
2018-08-20T07:35:05.293Z,20.20
2018-08-20T07:37:33.483Z,14.70
2018-08-20T07:40:01.650Z,20.93
2018-08-20T07:42:29.898Z,18.80
2018-08-20T07:44:58.029Z,12.93
2018-08-20T07:47:26.228Z,18.63
2018-08-20T07:49:54.463Z,17.93
2018-08-20T07:52:22.668Z,14.27
2018-08-20T07:54:50.848Z,20.57
2018-08-20T07:57:19.029Z,17.63
2018-08-20T07:59:47.203Z,14.80
2018-08-20T08:02:15.374Z,17.37
2018-08-20T08:04:43.740Z,17.20
2018-08-20T08:07:11.965Z,12.50
2018-08-20T08:09:40.123Z,14.60
2018-08-20T08:12:09.370Z,12.77
2018-08-20T08:14:37.577Z,21.73
2018-08-20T08:17:06.249Z,20.10
2018-08-20T08:19:34.612Z,12.67
2018-08-20T08:22:02.808Z,15.20
2018-08-20T08:24:31.271Z,13.40
2018-08-20T08:26:59.483Z,19.10
2018-08-20T08:29:27.689Z,22.53
2018-08-20T08:31:55.881Z,19.90
2018-08-20T08:34:24.317Z,13.10
2018-08-20T08:36:52.502Z,18.50
2018-08-20T08:39:20.715Z,20.07
2018-08-20T08:41:48.952Z,14.10
2018-08-20T08:44:17.134Z,13.67
2018-08-20T08:46:46.727Z,14.30
2018-08-20T08:49:14.949Z,17.67
2018-08-20T08:51:43.095Z,15.93
2018-08-20T08:54:11.268Z,23.10
2018-08-20T08:56:39.485Z,16.83
2018-08-20T08:59:07.692Z,16.53
2018-08-20T09:01:35.940Z,20.40
2018-08-20T09:04:04.151Z,14.90
2018-08-20T09:06:32.396Z,16.70
2018-08-20T09:09:00.769Z,17.57
2018-08-20T09:11:28.927Z,19.50
2018-08-20T09:13:57.409Z,19.00
2018-08-20T09:16:25.589Z,17.70
2018-08-20T09:18:53.881Z,26.97
2018-08-20T09:21:22.077Z,19.00
2018-08-20T09:23:50.262Z,22.43
2018-08-20T09:26:18.465Z,26.10
2018-08-20T09:28:46.685Z,29.10
2018-08-20T09:31:14.936Z,24.27
2018-08-20T09:33:43.075Z,27.03
2018-08-20T09:36:11.333Z,28.00
2018-08-20T09:38:39.490Z,23.97
2018-08-20T09:41:07.760Z,23.63
2018-08-20T09:43:35.954Z,22.90
2018-08-20T09:46:04.513Z,19.20
2018-08-20T09:48:32.778Z,23.33
2018-08-20T09:51:00.955Z,21.23
2018-08-20T09:53:29.495Z,16.43
2018-08-20T09:55:57.700Z,14.17
2018-08-20T09:58:25.883Z,27.63
2018-08-20T10:00:54.081Z,20.70
2018-08-20T10:03:22.282Z,21.67
2018-08-20T10:05:50.463Z,13.80
2018-08-20T10:08:18.637Z,18.90
2018-08-20T10:10:46.858Z,12.53
2018-08-20T10:13:15.090Z,16.03
2018-08-20T10:15:43.264Z,13.37
2018-08-20T10:18:11.502Z,12.27
2018-08-20T10:20:39.683Z,10.80
2018-08-20T10:23:07.860Z,15.97
2018-08-20T10:25:36.443Z,13.37
2018-08-20T10:28:04.733Z,13.17
2018-08-20T10:30:32.903Z,18.53
2018-08-20T10:33:01.153Z,12.30
2018-08-20T10:35:31.047Z,16.00
2018-08-20T10:37:59.299Z,16.70
2018-08-20T10:40:27.422Z,18.00
2018-08-20T10:42:55.593Z,13.67
2018-08-20T10:45:29.214Z,12.67
2018-08-20T10:47:57.406Z,13.53
2018-08-20T10:50:25.604Z,14.67
2018-08-20T10:52:53.862Z,18.40
2018-08-20T10:55:22.032Z,15.60
2018-08-20T10:57:50.346Z,12.80
2018-08-20T11:00:18.647Z,13.63
2018-08-20T11:02:46.845Z,16.50
2018-08-20T11:05:16.709Z,13.57
2018-08-20T11:07:44.886Z,16.83
2018-08-20T11:10:13.141Z,25.70
2018-08-20T11:12:41.274Z,26.50
2018-08-20T11:15:10.699Z,22.63
2018-08-20T11:17:39.086Z,20.07
2018-08-20T11:20:09.547Z,22.87
2018-08-20T11:22:37.744Z,21.00
2018-08-20T11:25:06.895Z,29.93
2018-08-20T11:27:35.136Z,29.10
2018-08-20T11:30:03.889Z,33.10
2018-08-20T11:32:32.044Z,32.10
2018-08-20T11:35:00.229Z,32.23
2018-08-20T11:37:28.392Z,22.63
2018-08-20T11:39:56.596Z,23.30
2018-08-20T11:42:24.827Z,27.60
2018-08-20T11:44:53.007Z,15.40
2018-08-20T11:47:21.201Z,16.60
2018-08-20T11:49:49.498Z,14.53
2018-08-20T11:52:17.648Z,18.07
2018-08-20T11:54:45.862Z,19.30
2018-08-20T11:57:14.064Z,17.40
2018-08-20T11:59:42.222Z,18.03
2018-08-20T12:02:10.409Z,20.87
2018-08-20T12:04:38.591Z,15.23
2018-08-20T12:07:07.139Z,23.80
2018-08-20T12:09:35.257Z,16.03
2018-08-20T12:12:03.477Z,28.00
2018-08-20T12:14:31.907Z,13.97
2018-08-20T12:17:00.111Z,16.90
2018-08-20T12:19:28.328Z,17.50
2018-08-20T12:21:56.660Z,15.67
2018-08-20T12:24:25.549Z,16.70
2018-08-20T12:26:53.783Z,13.43
2018-08-20T12:29:21.946Z,12.10
2018-08-20T12:31:50.161Z,12.13
2018-08-20T12:34:18.376Z,15.97
2018-08-20T12:36:46.576Z,22.57
2018-08-20T12:39:14.889Z,15.00
2018-08-20T12:41:43.104Z,18.63
2018-08-20T12:44:11.307Z,14.57
2018-08-20T12:46:39.513Z,11.67
2018-08-20T12:49:07.704Z,10.50
2018-08-20T12:51:35.907Z,8.30
2018-08-20T12:54:04.100Z,10.30
2018-08-20T12:56:32.347Z,11.83
2018-08-20T12:59:00.566Z,10.87
2018-08-20T13:01:28.802Z,8.27
2018-08-20T13:03:57.013Z,10.50
2018-08-20T13:06:25.202Z,10.70
2018-08-20T13:08:53.489Z,7.10
2018-08-20T13:11:21.621Z,7.13
2018-08-20T13:13:49.808Z,15.50
2018-08-20T13:16:18.311Z,18.83
2018-08-20T13:18:46.427Z,7.83
2018-08-20T13:21:14.684Z,9.53
2018-08-20T13:23:42.889Z,10.30
2018-08-20T13:26:11.053Z,10.37
2018-08-20T13:28:39.290Z,11.70
2018-08-20T13:31:07.525Z,8.30
2018-08-20T13:33:35.708Z,10.57
2018-08-20T13:36:03.896Z,16.30
2018-08-20T13:38:32.149Z,13.60
2018-08-20T13:41:00.341Z,9.10
2018-08-20T13:43:28.518Z,11.40
2018-08-20T13:45:56.752Z,8.70
2018-08-20T13:48:24.951Z,8.67
2018-08-20T13:50:54.417Z,13.07
2018-08-20T13:53:22.619Z,13.57
2018-08-20T13:55:50.859Z,11.53
2018-08-20T13:58:19.101Z,10.93
2018-08-20T14:00:47.285Z,11.13
2018-08-20T14:03:15.563Z,14.00
2018-08-20T14:05:43.768Z,14.13
2018-08-20T14:08:12.590Z,11.63
2018-08-20T14:10:40.874Z,13.00
2018-08-20T14:13:09.095Z,10.90
2018-08-20T14:15:37.395Z,10.40
2018-08-20T14:18:05.827Z,18.50
2018-08-20T14:20:34.255Z,14.30
2018-08-20T14:23:02.640Z,9.73
2018-08-20T14:25:30.863Z,8.23
2018-08-20T14:27:59.170Z,11.03
2018-08-20T14:30:27.406Z,15.93
2018-08-20T14:32:55.625Z,9.47
2018-08-20T14:35:23.903Z,9.73
2018-08-20T14:37:52.101Z,8.50
2018-08-20T14:40:20.402Z,6.83
2018-08-20T14:42:48.597Z,10.77
2018-08-20T14:45:17.164Z,13.10
2018-08-20T14:47:45.879Z,12.43
2018-08-20T14:50:15.890Z,10.40
2018-08-20T14:52:44.083Z,15.83
2018-08-20T14:55:12.863Z,18.83
2018-08-20T14:57:41.105Z,20.03
2018-08-20T15:00:12.193Z,13.93
2018-08-20T15:02:40.377Z,22.03
2018-08-20T15:05:08.909Z,17.13
2018-08-20T15:07:37.358Z,17.40
2018-08-20T15:10:07.045Z,19.30
2018-08-20T15:12:35.202Z,15.73
2018-08-20T15:15:03.550Z,16.20
2018-08-20T15:17:31.706Z,19.40
2018-08-20T15:19:59.913Z,19.03
2018-08-20T15:22:28.172Z,17.40
2018-08-20T15:24:56.369Z,19.50
2018-08-20T15:27:24.531Z,20.80
2018-08-20T15:29:52.799Z,15.77
2018-08-20T15:32:21.012Z,15.20
2018-08-20T15:34:49.256Z,20.70
2018-08-20T15:37:17.495Z,18.03
2018-08-20T15:39:45.696Z,18.50
2018-08-20T15:42:13.887Z,20.47
2018-08-20T15:44:42.217Z,25.73
2018-08-20T15:47:10.417Z,21.77
2018-08-20T15:49:38.599Z,23.93
2018-08-20T15:52:06.863Z,28.37
2018-08-20T15:54:35.056Z,31.57
2018-08-20T15:57:03.222Z,36.43
2018-08-20T15:59:31.488Z,31.70
2018-08-20T16:01:59.673Z,35.90
2018-08-20T16:04:27.863Z,32.13
2018-08-20T16:06:56.071Z,30.23
2018-08-20T16:09:24.252Z,28.37
2018-08-20T16:11:52.519Z,27.10
2018-08-20T16:14:20.700Z,27.73
2018-08-20T16:16:48.902Z,31.00
2018-08-20T16:19:17.234Z,31.40
2018-08-20T16:21:45.426Z,29.60
2018-08-20T16:24:13.672Z,18.80
2018-08-20T16:26:41.885Z,23.63
2018-08-20T16:29:10.113Z,29.20
2018-08-20T16:31:38.332Z,29.50
2018-08-20T16:34:06.643Z,24.70
2018-08-20T16:36:35.397Z,23.90
2018-08-20T16:39:05.044Z,32.70
2018-08-20T16:41:33.302Z,25.57
2018-08-20T16:44:01.501Z,26.23
2018-08-20T16:46:29.675Z,22.67
2018-08-20T16:48:57.913Z,24.23
2018-08-20T16:51:26.187Z,26.50
2018-08-20T16:53:54.380Z,25.40
2018-08-20T16:56:22.617Z,25.20
2018-08-20T16:58:50.812Z,30.10
2018-08-20T17:01:19.755Z,27.23
2018-08-20T17:03:47.990Z,35.73
2018-08-20T17:06:16.190Z,29.23
2018-08-20T17:08:45.478Z,36.13
2018-08-20T17:11:20.141Z,20.80
2018-08-20T17:13:48.398Z,28.03
2018-08-20T17:16:16.655Z,22.13
2018-08-20T17:18:44.899Z,29.10
2018-08-20T17:21:13.129Z,14.57
2018-08-20T17:23:41.352Z,19.63
2018-08-20T17:26:09.558Z,23.23
2018-08-20T17:28:37.847Z,18.93
2018-08-20T17:31:08.554Z,18.23
2018-08-20T17:33:36.716Z,22.10
2018-08-20T17:36:07.293Z,18.30
2018-08-20T17:38:35.515Z,23.80
2018-08-20T17:41:03.836Z,17.80
2018-08-20T17:43:32.076Z,21.50
2018-08-20T17:46:00.480Z,24.07
2018-08-20T17:48:31.878Z,20.40
2018-08-20T17:51:00.446Z,17.43
2018-08-20T17:53:40.517Z,25.30
2018-08-20T17:56:08.800Z,11.97
2018-08-20T17:58:36.973Z,15.63
2018-08-20T18:01:05.469Z,12.07
2018-08-20T18:03:34.570Z,13.10
2018-08-20T18:06:04.755Z,12.30
2018-08-20T18:08:33.810Z,11.93
2018-08-20T18:11:02.452Z,11.17
2018-08-20T18:13:42.637Z,8.93
2018-08-20T18:16:12.158Z,11.00
2018-08-20T18:18:41.882Z,11.67
2018-08-20T18:21:10.212Z,12.30
2018-08-20T18:23:38.809Z,10.10
2018-08-20T18:26:07.276Z,10.47
2018-08-20T18:28:41.721Z,6.63
2018-08-20T18:31:12.239Z,14.60
2018-08-20T18:33:41.301Z,12.30
2018-08-20T18:36:14.121Z,7.63
2018-08-20T18:38:48.145Z,9.37
2018-08-20T18:41:16.452Z,11.40
2018-08-20T18:43:45.161Z,10.67
2018-08-20T18:46:13.470Z,8.97
2018-08-20T18:48:42.140Z,7.07
2018-08-20T18:51:13.569Z,7.00
2018-08-20T18:53:42.177Z,11.90
2018-08-20T18:56:12.505Z,6.57
2018-08-20T18:58:41.400Z,7.33
2018-08-20T19:01:10.169Z,6.90
2018-08-20T19:03:44.788Z,8.23
2018-08-20T19:06:13.859Z,10.00
2018-08-20T19:08:42.746Z,11.57
2018-08-20T19:11:12.509Z,8.93
2018-08-20T19:13:41.401Z,6.80
2018-08-20T19:16:42.775Z,10.20
2018-08-20T19:19:11.193Z,11.50
2018-08-20T19:21:41.255Z,10.63
2018-08-20T19:24:10.198Z,13.57
2018-08-20T19:26:38.673Z,9.30
2018-08-20T19:29:23.815Z,8.43
2018-08-20T19:31:52.482Z,12.57
2018-08-20T19:34:20.966Z,7.73
2018-08-20T19:36:49.450Z,8.13
2018-08-20T19:39:18.050Z,9.33
2018-08-20T19:41:46.634Z,8.87
2018-08-20T19:44:14.961Z,9.23
2018-08-20T19:46:43.307Z,9.20
2018-08-20T19:49:15.007Z,17.57
2018-08-20T19:51:44.780Z,11.80
2018-08-20T19:54:14.682Z,8.40
2018-08-20T19:56:43.140Z,8.37
2018-08-20T19:59:11.946Z,6.90
2018-08-20T20:01:40.213Z,9.63
2018-08-20T20:04:13.416Z,10.57
2018-08-20T20:06:42.266Z,9.70
2018-08-20T20:09:11.212Z,15.67
2018-08-20T20:11:44.497Z,7.87
2018-08-20T20:14:13.296Z,8.33
2018-08-20T20:16:47.295Z,10.87
2018-08-20T20:19:15.630Z,8.10
2018-08-20T20:21:43.929Z,12.80
2018-08-20T20:24:12.886Z,8.93
2018-08-20T20:26:41.420Z,11.43
2018-08-20T20:29:10.596Z,10.83
2018-08-20T20:31:39.839Z,11.20
2018-08-20T20:34:08.212Z,8.73
2018-08-20T20:36:36.485Z,7.67
2018-08-20T20:39:08.449Z,12.20
2018-08-20T20:41:36.656Z,10.73
2018-08-20T20:44:05.270Z,13.73
2018-08-20T20:46:33.680Z,17.47
2018-08-20T20:49:02.083Z,12.47
2018-08-20T20:51:30.519Z,11.37
2018-08-20T20:53:58.845Z,13.23
2018-08-20T20:56:27.040Z,14.57
2018-08-20T20:58:55.260Z,11.13
2018-08-20T21:01:23.485Z,10.90
2018-08-20T21:03:51.652Z,6.90
2018-08-20T21:06:19.844Z,15.17
2018-08-20T21:08:50.884Z,13.00
2018-08-20T21:11:20.353Z,7.10
2018-08-20T21:13:48.708Z,6.40
2018-08-20T21:16:20.057Z,9.00
2018-08-20T21:18:50.226Z,10.20
2018-08-20T21:21:19.008Z,14.27
2018-08-20T21:23:47.241Z,9.90
2018-08-20T21:26:15.456Z,9.00
2018-08-20T21:28:51.240Z,8.37
2018-08-20T21:31:20.732Z,11.63
2018-08-20T21:33:52.742Z,8.50
2018-08-20T21:36:20.968Z,8.27
2018-08-20T21:38:49.157Z,6.50
2018-08-20T21:41:18.950Z,14.10
2018-08-20T21:43:48.213Z,10.83
2018-08-20T21:46:16.739Z,12.53
2018-08-20T21:48:45.400Z,9.20
2018-08-20T21:51:22.075Z,18.30
2018-08-20T21:53:50.395Z,14.23
2018-08-20T21:56:18.651Z,7.00
2018-08-20T21:58:46.849Z,15.50
2018-08-20T22:01:16.132Z,8.97
2018-08-20T22:03:44.684Z,9.87
2018-08-20T22:06:13.307Z,7.67
2018-08-20T22:08:41.675Z,14.73
2018-08-20T22:11:10.528Z,8.00
2018-08-20T22:13:38.932Z,12.57
2018-08-20T22:16:17.015Z,10.00
2018-08-20T22:18:46.424Z,8.83
2018-08-20T22:21:15.861Z,8.27
2018-08-20T22:23:44.738Z,8.97
2018-08-20T22:26:17.173Z,11.43
2018-08-20T22:28:45.508Z,8.57
2018-08-20T22:31:13.684Z,8.97
2018-08-20T22:33:41.860Z,9.57
2018-08-20T22:36:12.765Z,11.17
2018-08-20T22:38:49.182Z,12.03
2018-08-20T22:41:18.695Z,8.97
2018-08-20T22:43:46.907Z,6.63
2018-08-20T22:46:15.071Z,15.87
2018-08-20T22:48:43.265Z,11.80
2018-08-20T22:51:17.565Z,13.43
2018-08-20T22:53:48.815Z,17.73
2018-08-20T22:56:24.472Z,18.43
2018-08-20T22:58:54.936Z,17.70
2018-08-20T23:01:23.076Z,6.70
2018-08-20T23:03:51.539Z,11.67
2018-08-20T23:06:19.888Z,10.10
2018-08-20T23:08:48.053Z,10.73
2018-08-20T23:11:26.452Z,7.80
2018-08-20T23:13:54.636Z,9.00
2018-08-20T23:16:22.811Z,9.90
2018-08-20T23:18:51.562Z,8.63
2018-08-20T23:21:20.208Z,13.03
2018-08-20T23:23:48.423Z,9.97
2018-08-20T23:26:16.655Z,7.57
2018-08-20T23:28:44.809Z,9.30
2018-08-20T23:31:13.715Z,9.47
2018-08-20T23:33:41.942Z,12.10
2018-08-20T23:36:10.172Z,8.53
2018-08-20T23:38:38.371Z,6.63
2018-08-20T23:41:06.694Z,8.63
2018-08-20T23:43:34.840Z,9.03
2018-08-20T23:46:03.103Z,16.23
2018-08-20T23:48:31.329Z,9.00
2018-08-20T23:51:06.451Z,12.17
2018-08-20T23:53:34.648Z,11.63
2018-08-20T23:56:02.860Z,15.03
2018-08-20T23:58:31.061Z,7.90
